Time;durP1;ratioP1;P1;durP2;ratioP2;P2;SDS_P1;SDS_P2;PMS_P1;PMS_P2;Temp;Humidity;BMP_temperature;BMP_pressure;BME280_temperature;BME280_humidity;BME280_pressure;Samples;Min_cycle;Max_cycle;Signal;HPM_P1;HPM_P2
2021/07/05 00:02:15;;;;;;;5.63;3.60;;;;;;;17.90;74.40;100783.19;5072297;28;20500;-56
2021/07/05 00:04:44;;;;;;;4.10;3.00;;;;;;;17.88;74.45;100778.78;5071451;28;20117;-54
2021/07/05 00:07:12;;;;;;;7.70;2.65;;;;;;;17.88;74.41;100775.22;5072359;28;20059;-51
2021/07/05 00:09:40;;;;;;;6.93;3.13;;;;;;;17.88;74.30;100773.28;5072360;28;20045;-54
2021/07/05 00:12:08;;;;;;;4.68;2.90;;;;;;;17.91;74.15;100771.03;5072295;28;20040;-53
2021/07/05 00:14:37;;;;;;;7.57;3.15;;;;;;;17.87;73.98;100771.66;5072463;28;20077;-53
2021/07/05 00:17:05;;;;;;;4.35;2.95;;;;;;;17.84;74.30;100774.22;5050740;28;20511;-55
2021/07/05 00:19:33;;;;;;;4.57;2.90;;;;;;;17.83;74.32;100769.88;5067781;28;20047;-50
2021/07/05 00:22:00;;;;;;;7.65;3.92;;;;;;;17.80;74.56;100763.03;5071901;28;20056;-51
2021/07/05 00:24:28;;;;;;;5.75;3.50;;;;;;;17.80;74.67;100754.78;5072191;28;20368;-55
2021/07/05 00:26:56;;;;;;;5.72;3.53;;;;;;;17.80;74.67;100763.03;5071963;28;20515;-56
2021/07/05 00:29:24;;;;;;;6.20;2.78;;;;;;;17.82;74.48;100758.03;5051032;28;20044;-51
2021/07/05 00:31:57;;;;;;;4.40;3.20;;;;;;;17.81;74.53;100763.84;5069010;28;20048;-55
2021/07/05 00:34:25;;;;;;;5.47;2.92;;;;;;;17.81;74.57;100763.84;5050498;28;20038;-56
2021/07/05 00:36:53;;;;;;;4.30;3.00;;;;;;;17.81;74.36;100756.38;5068650;28;20106;-54
2021/07/05 00:39:20;;;;;;;5.82;2.80;;;;;;;17.82;74.21;100755.28;5072087;28;20037;-55
2021/07/05 00:41:48;;;;;;;4.75;2.90;;;;;;;17.82;74.34;100757.19;5071959;28;20084;-53
2021/07/05 00:44:15;;;;;;;7.35;3.13;;;;;;;17.80;74.32;100757.53;5071659;28;20048;-54
2021/07/05 00:46:43;;;;;;;3.22;2.80;;;;;;;17.76;73.91;100753.75;5071848;28;20052;-53
2021/07/05 00:49:11;;;;;;;8.25;2.78;;;;;;;17.66;74.32;100749.31;5052531;28;20565;-52
2021/07/05 00:51:38;;;;;;;7.30;2.70;;;;;;;17.63;74.69;100743.63;5071690;28;20056;-51
2021/07/05 00:54:06;;;;;;;4.78;2.80;;;;;;;17.62;74.98;100737.31;5071828;28;20131;-54
2021/07/05 00:56:34;;;;;;;7.32;3.05;;;;;;;17.63;74.86;100738.94;5054125;28;20037;-52
2021/07/05 00:59:02;;;;;;;5.68;3.00;;;;;;;17.65;74.58;100741.38;5054115;28;20525;-51
2021/07/05 01:01:30;;;;;;;6.05;2.90;;;;;;;17.63;74.63;100736.19;5071704;28;20040;-52
2021/07/05 01:03:57;;;;;;;7.18;2.75;;;;;;;17.57;74.62;100729.19;5071509;28;20040;-53
2021/07/05 01:06:27;;;;;;;10.10;2.97;;;;;;;17.51;75.00;100737.91;5053718;28;20052;-52
2021/07/05 01:08:55;;;;;;;8.65;3.47;;;;;;;17.46;75.09;100722.31;5071959;28;20062;-51
2021/07/05 01:11:22;;;;;;;3.85;3.15;;;;;;;17.44;75.49;100733.69;5075411;28;20040;-49
2021/07/05 01:13:50;;;;;;;5.53;3.05;;;;;;;17.45;75.37;100732.53;5058032;28;20040;-54
2021/07/05 01:16:18;;;;;;;3.78;3.00;;;;;;;17.42;75.18;100735.94;5074909;28;20036;-50
2021/07/05 01:18:45;;;;;;;5.80;2.80;;;;;;;17.43;75.38;100739.50;5074958;28;20048;-54
2021/07/05 01:21:13;;;;;;;3.47;2.50;;;;;;;17.43;75.12;100745.81;5075337;28;20071;-53
2021/07/05 01:23:41;;;;;;;8.77;2.67;;;;;;;17.46;75.28;100747.94;5075336;28;20049;-53
2021/07/05 01:26:08;;;;;;;3.38;2.75;;;;;;;17.51;75.24;100751.69;5075037;28;20036;-53
2021/07/05 01:28:36;;;;;;;4.82;2.80;;;;;;;17.58;74.97;100741.00;5057144;28;20046;-51
2021/07/05 01:31:04;;;;;;;5.63;3.03;;;;;;;17.58;74.74;100743.78;5074763;28;20044;-53
2021/07/05 01:33:31;;;;;;;3.25;2.50;;;;;;;17.60;74.70;100739.56;5074800;28;20526;-48
2021/07/05 01:35:59;;;;;;;4.22;2.70;;;;;;;17.62;74.55;100737.31;5075049;28;20045;-52
2021/07/05 01:38:27;;;;;;;5.00;2.63;;;;;;;17.61;74.56;100740.41;5074864;28;20052;-52
2021/07/05 01:40:58;;;;;;;6.13;2.83;;;;;;;17.60;74.86;100733.25;5075175;28;20123;-53
2021/07/05 01:43:26;;;;;;;8.82;3.10;;;;;;;17.58;74.57;100735.50;5074985;28;20045;-53
2021/07/05 01:45:54;;;;;;;4.40;2.30;;;;;;;17.61;74.60;100737.66;5074167;28;20394;-54
2021/07/05 01:48:22;;;;;;;4.32;2.47;;;;;;;17.57;74.63;100733.91;5075008;28;20161;-53
2021/07/05 01:50:49;;;;;;;4.65;2.33;;;;;;;17.58;74.59;100735.50;5074382;28;20162;-52
2021/07/05 01:53:19;;;;;;;4.63;2.75;;;;;;;17.58;74.64;100741.00;5074844;28;20055;-52
2021/07/05 01:55:47;;;;;;;6.63;3.05;;;;;;;17.55;74.58;100749.91;5074483;28;20048;-52
2021/07/05 01:58:14;;;;;;;4.70;2.60;;;;;;;17.51;74.72;100743.41;5074706;28;20037;-52
2021/07/05 02:00:45;;;;;;;5.93;3.08;;;;;;;17.48;74.93;100746.81;5055487;28;20040;-52
2021/07/05 02:03:16;;;;;;;2.80;2.47;;;;;;;17.46;74.80;100742.44;5074379;28;20041;-53
2021/07/05 02:05:45;;;;;;;5.15;2.70;;;;;;;17.38;75.08;100740.44;5074036;28;20055;-51
2021/07/05 02:08:13;;;;;;;4.28;2.70;;;;;;;17.38;75.38;100743.19;5074634;28;20036;-55
2021/07/05 02:10:42;;;;;;;5.93;2.35;;;;;;;17.38;75.47;100731.38;5074118;28;20050;-53
2021/07/05 02:13:11;;;;;;;3.33;2.20;;;;;;;17.39;75.54;100733.81;5074386;28;20402;-56
2021/07/05 02:15:40;;;;;;;3.65;2.67;;;;;;;17.38;75.63;100737.69;5055888;28;20513;-54
2021/07/05 02:18:08;;;;;;;3.72;2.60;;;;;;;17.35;75.76;100730.06;5074392;28;20116;-52
2021/07/05 02:20:36;;;;;;;6.30;3.22;;;;;;;17.32;75.62;100727.94;5073549;28;20483;-55
2021/07/05 02:23:06;;;;;;;4.20;2.80;;;;;;;17.27;75.50;100725.34;5073571;28;20051;-55
2021/07/05 02:25:35;;;;;;;7.72;3.22;;;;;;;17.20;75.85;100724.97;5073814;28;20045;-54
2021/07/05 02:28:07;;;;;;;6.63;2.67;;;;;;;17.15;76.21;100719.56;5074128;28;20040;-55
2021/07/05 02:30:35;;;;;;;4.80;3.00;;;;;;;17.14;76.36;100728.97;5073989;28;20055;-54
2021/07/05 02:33:05;;;;;;;4.57;2.95;;;;;;;17.14;76.48;100723.47;5073816;28;20044;-53
2021/07/05 02:35:34;;;;;;;5.60;3.03;;;;;;;17.16;76.46;100726.72;5073700;28;20040;-53
2021/07/05 02:38:08;;;;;;;6.43;2.83;;;;;;;17.18;76.55;100729.97;5074090;28;20391;-52
2021/07/05 02:40:40;;;;;;;6.20;3.25;;;;;;;17.20;76.27;100730.47;5073825;28;20079;-54
2021/07/05 02:43:08;;;;;;;9.27;3.38;;;;;;;17.21;76.04;100740.34;5073795;28;20102;-51
2021/07/05 02:45:37;;;;;;;7.78;3.33;;;;;;;17.22;76.27;100736.44;5073284;28;20044;-51
2021/07/05 02:48:09;;;;;;;6.78;3.20;;;;;;;17.22;76.40;100747.47;5073564;28;20119;-52
2021/07/05 02:50:39;;;;;;;5.00;2.63;;;;;;;17.22;76.34;100752.97;5073390;28;20048;-52
2021/07/05 02:53:08;;;;;;;7.45;2.90;;;;;;;17.24;76.64;100758.97;5073722;28;20040;-53
2021/07/05 02:55:36;;;;;;;7.80;3.80;;;;;;;17.19;76.20;100767.38;5073552;28;20040;-50
2021/07/05 02:58:05;;;;;;;9.65;3.70;;;;;;;17.13;76.41;100763.13;5073027;28;20407;-51
2021/07/05 03:00:35;;;;;;;5.32;3.47;;;;;;;17.17;76.21;100764.13;5055645;28;20047;-52
2021/07/05 03:03:03;;;;;;;6.78;3.15;;;;;;;17.09;76.03;100770.38;5073499;28;20041;-52
2021/07/05 03:05:32;;;;;;;6.55;3.33;;;;;;;17.01;75.63;100783.78;5072933;28;20033;-52
2021/07/05 03:08:00;;;;;;;6.45;3.33;;;;;;;16.92;75.21;100790.34;5073431;28;20033;-50
2021/07/05 03:10:33;;;;;;;5.05;2.80;;;;;;;16.88;74.53;100789.31;5073327;28;20047;-51
2021/07/05 03:13:01;;;;;;;8.73;2.72;;;;;;;16.81;73.37;100787.00;5072713;28;20391;-51
2021/07/05 03:15:29;;;;;;;4.65;2.60;;;;;;;16.75;73.60;100788.22;5073325;28;20040;-51
2021/07/05 03:17:57;;;;;;;6.07;2.40;;;;;;;16.71;72.81;100778.97;5072877;28;20048;-53
2021/07/05 03:20:28;;;;;;;6.93;2.55;;;;;;;16.67;73.31;100783.44;5073077;28;20051;-54
2021/07/05 03:22:59;;;;;;;5.88;2.50;;;;;;;16.66;73.51;100770.81;5072654;28;20422;-52
2021/07/05 03:25:28;;;;;;;6.53;2.30;;;;;;;16.70;73.70;100782.84;5073026;28;20049;-51
2021/07/05 03:27:56;;;;;;;5.45;2.30;;;;;;;16.75;73.75;100785.47;5072397;28;20047;-52
2021/07/05 03:30:25;;;;;;;7.10;2.67;;;;;;;16.73;74.16;100776.72;5072765;28;20049;-53
2021/07/05 03:32:53;;;;;;;6.40;2.80;;;;;;;16.69;74.51;100770.19;5072243;28;20427;-50
2021/07/05 03:35:22;;;;;;;7.07;2.92;;;;;;;16.69;74.55;100781.19;5072500;28;20043;-51
2021/07/05 03:37:50;;;;;;;4.07;1.77;;;;;;;16.75;75.28;100785.47;5072861;28;20120;-51
2021/07/05 03:40:24;;;;;;;5.40;2.45;;;;;;;16.84;75.11;100794.66;5072540;28;20040;-51
2021/07/05 03:42:52;;;;;;;5.03;2.55;;;;;;;16.82;74.44;100786.69;5072203;28;20051;-51
2021/07/05 03:45:22;;;;;;;6.88;2.63;;;;;;;16.83;74.79;100791.06;5072123;28;20047;-52
2021/07/05 03:47:50;;;;;;;4.82;2.22;;;;;;;16.85;74.62;100793.53;5072718;28;20047;-50
2021/07/05 03:50:19;;;;;;;3.97;2.00;;;;;;;16.85;74.82;100793.53;5072203;28;20049;-55
2021/07/05 03:52:47;;;;;;;6.55;2.28;;;;;;;16.84;74.58;100786.41;5072554;28;20055;-50
2021/07/05 03:55:18;;;;;;;6.18;2.70;;;;;;;16.82;74.64;100780.38;5072366;28;20045;-54
2021/07/05 03:57:47;;;;;;;4.28;2.25;;;;;;;16.81;75.03;100779.59;5072150;28;20039;-51
2021/07/05 04:00:30;;;;;;;4.10;1.90;;;;;;;16.81;75.37;100773.25;5072431;28;20063;-50
2021/07/05 04:02:58;;;;;;;3.80;1.90;;;;;;;16.84;75.06;100772.63;5072564;28;20041;-50
2021/07/05 04:05:27;;;;;;;4.53;2.20;;;;;;;16.85;75.20;100766.00;5072176;28;20036;-52
2021/07/05 04:07:55;;;;;;;5.05;2.25;;;;;;;16.88;74.89;100770.88;5072169;28;20068;-51
2021/07/05 04:10:23;;;;;;;5.63;2.42;;;;;;;16.91;74.62;100772.19;5071868;28;20521;-50
2021/07/05 04:12:51;;;;;;;4.43;2.22;;;;;;;16.93;74.84;100770.78;5053761;28;20055;-53
2021/07/05 04:15:19;;;;;;;3.78;2.05;;;;;;;16.95;75.07;100782.25;5072063;28;20049;-51
2021/07/05 04:17:46;;;;;;;8.55;2.70;;;;;;;16.94;74.69;100777.91;5037667;28;20041;-52
2021/07/05 04:20:18;;;;;;;6.65;2.47;;;;;;;16.95;75.06;100774.00;5072265;28;20049;-53
2021/07/05 04:22:45;;;;;;;7.00;2.75;;;;;;;16.94;75.12;100780.66;5072089;28;20136;-50
2021/07/05 04:25:15;;;;;;;3.75;2.20;;;;;;;16.96;75.27;100778.41;5071345;28;20036;-53
2021/07/05 04:27:44;;;;;;;8.60;2.70;;;;;;;17.04;75.07;100787.84;5072296;28;20033;-51
2021/07/05 04:30:13;;;;;;;5.82;2.50;;;;;;;17.01;74.96;100788.47;5072055;28;20037;-51
2021/07/05 04:32:41;;;;;;;6.60;2.88;;;;;;;17.00;74.91;100782.16;5071999;28;20102;-56
2021/07/05 04:35:12;;;;;;;6.38;2.60;;;;;;;16.93;74.55;100779.03;5054201;28;20048;-57
2021/07/05 04:37:42;;;;;;;4.60;2.38;;;;;;;16.89;75.17;100780.78;5072264;28;20495;-55
2021/07/05 04:40:17;;;;;;;6.70;2.60;;;;;;;16.85;75.18;100778.94;5071727;28;20048;-56
2021/07/05 04:42:46;;;;;;;5.57;2.55;;;;;;;16.88;74.83;100779.13;5072319;28;20075;-55
2021/07/05 04:45:16;;;;;;;8.70;3.00;;;;;;;16.89;74.76;100772.50;5073935;28;20106;-51
2021/07/05 04:47:44;;;;;;;4.40;2.70;;;;;;;16.88;74.38;100776.38;5075891;28;20036;-51
2021/07/05 04:50:14;;;;;;;4.75;2.63;;;;;;;16.90;74.57;100781.56;5075596;28;20072;-52
2021/07/05 04:52:42;;;;;;;6.57;2.80;;;;;;;16.90;74.51;100776.06;5075656;28;20067;-50
2021/07/05 04:55:12;;;;;;;5.10;2.80;;;;;;;16.88;74.45;100778.31;5075492;28;20044;-53
2021/07/05 04:57:42;;;;;;;5.05;2.63;;;;;;;16.86;74.42;100775.91;5075872;28;20119;-54
2021/07/05 05:00:20;;;;;;;4.90;2.63;;;;;;;16.87;74.98;100772.00;5075932;28;20082;-55
2021/07/05 05:02:55;;;;;;;4.60;2.70;;;;;;;16.88;74.56;100768.13;5075659;28;20478;-53
2021/07/05 05:05:23;;;;;;;8.05;2.88;;;;;;;16.90;74.92;100771.38;5057200;28;20051;-52
2021/07/05 05:07:51;;;;;;;4.65;2.70;;;;;;;16.89;74.74;100774.47;5075336;28;20059;-53
2021/07/05 05:10:20;;;;;;;8.35;3.22;;;;;;;16.87;74.51;100766.50;5075321;28;20380;-51
2021/07/05 05:12:49;;;;;;;5.95;2.97;;;;;;;16.87;74.60;100763.75;5075401;28;20064;-54
2021/07/05 05:15:17;;;;;;;7.45;3.33;;;;;;;16.85;74.60;100762.44;5075289;28;20060;-51
2021/07/05 05:17:46;;;;;;;9.50;2.92;;;;;;;16.85;74.70;100768.75;5075280;28;20035;-55
2021/07/05 05:20:15;;;;;;;7.15;3.35;;;;;;;16.85;74.64;100767.94;5075395;28;20041;-51
2021/07/05 05:22:43;;;;;;;5.50;2.72;;;;;;;16.86;74.42;100773.16;5075019;28;20518;-51
2021/07/05 05:25:12;;;;;;;5.90;3.22;;;;;;;16.87;74.37;100769.25;5074985;28;20048;-51
2021/07/05 05:27:40;;;;;;;6.15;2.90;;;;;;;16.90;75.08;100776.06;5075417;28;20078;-52
2021/07/05 05:30:09;;;;;;;6.28;3.15;;;;;;;16.90;74.40;100776.06;5057522;28;20052;-51
2021/07/05 05:32:45;;;;;;;9.00;3.67;;;;;;;16.88;74.33;100762.63;5075590;28;20056;-49
2021/07/05 05:35:16;;;;;;;8.82;3.40;;;;;;;16.83;74.50;100771.00;5074545;28;20036;-49
2021/07/05 05:37:44;;;;;;;58.35;12.55;;;;;;;16.81;74.70;100771.31;5074299;28;20483;-50
2021/07/05 05:40:12;;;;;;;46.80;11.32;;;;;;;16.81;75.38;100767.75;5074908;28;20040;-50
2021/07/05 05:42:39;;;;;;;65.35;16.17;;;;;;;16.80;74.81;100760.63;5074701;28;20059;-50
2021/07/05 05:45:08;;;;;;;9.50;3.10;;;;;;;16.82;74.96;100763.88;5074270;28;20048;-49
2021/07/05 05:47:36;;;;;;;10.85;4.00;;;;;;;16.80;75.20;100752.38;5074904;28;20098;-49
2021/07/05 05:50:05;;;;;;;12.05;3.90;;;;;;;16.81;74.99;100762.22;5074213;28;20047;-49
2021/07/05 05:52:33;;;;;;;10.55;4.00;;;;;;;16.83;75.52;100754.47;5074195;28;20044;-49
2021/07/05 05:55:00;;;;;;;9.30;4.13;;;;;;;16.80;74.77;100755.13;5056424;28;20049;-53
2021/07/05 05:57:29;;;;;;;8.13;3.17;;;;;;;16.79;75.17;100761.75;5074336;28;20051;-52
2021/07/05 05:59:59;;;;;;;6.53;3.38;;;;;;;16.80;75.11;100755.94;5056626;28;20499;-52
2021/07/05 06:02:27;;;;;;;6.63;3.08;;;;;;;16.81;75.60;100752.06;5074231;28;20044;-52
2021/07/05 06:04:55;;;;;;;10.25;3.65;;;;;;;16.86;75.38;100753.88;5074054;28;20071;-53
2021/07/05 06:07:23;;;;;;;8.85;3.72;;;;;;;16.85;74.99;100754.19;5073823;28;20040;-54
2021/07/05 06:09:51;;;;;;;7.78;3.83;;;;;;;16.82;74.96;100758.38;5074300;28;20411;-55
2021/07/05 06:12:20;;;;;;;7.38;3.40;;;;;;;16.83;75.22;100743.47;5073866;28;20048;-52
2021/07/05 06:14:48;;;;;;;9.27;2.95;;;;;;;16.85;75.72;100756.94;5074104;28;20037;-51
2021/07/05 06:17:15;;;;;;;9.07;3.92;;;;;;;16.85;75.42;100760.50;5074046;28;20049;-52
2021/07/05 06:19:43;;;;;;;13.23;4.03;;;;;;;16.85;75.55;100770.69;5073983;28;20040;-48
2021/07/05 06:22:16;;;;;;;8.23;3.65;;;;;;;16.82;75.57;100767.44;5073299;28;20039;-49
2021/07/05 06:24:47;;;;;;;8.52;3.35;;;;;;;16.86;75.65;100770.41;5073546;28;20468;-53
2021/07/05 06:27:15;;;;;;;7.35;3.67;;;;;;;16.88;75.39;100768.13;5074182;28;20044;-51
2021/07/05 06:29:43;;;;;;;8.70;3.80;;;;;;;16.85;75.62;100757.75;5073995;28;20048;-52
2021/07/05 06:32:11;;;;;;;8.55;3.42;;;;;;;16.88;75.51;100768.13;5073775;28;20047;-52
2021/07/05 06:34:39;;;;;;;10.23;3.78;;;;;;;16.90;75.56;100770.56;5055772;28;20468;-51
2021/07/05 06:37:09;;;;;;;7.85;3.30;;;;;;;16.93;75.42;100770.78;5073519;28;20055;-50
2021/07/05 06:39:36;;;;;;;9.80;4.00;;;;;;;16.94;75.32;100764.13;5073515;28;20068;-51
2021/07/05 06:42:04;;;;;;;8.77;4.00;;;;;;;16.94;75.64;100771.59;5073352;28;20044;-49
2021/07/05 06:44:32;;;;;;;9.98;3.92;;;;;;;16.95;75.70;100770.44;5073447;28;20449;-48
2021/07/05 06:47:00;;;;;;;6.85;3.03;;;;;;;16.95;75.78;100768.50;5073499;28;20044;-50
2021/07/05 06:49:28;;;;;;;7.88;3.08;;;;;;;16.93;75.92;100776.28;5073262;28;20045;-48
2021/07/05 06:51:57;;;;;;;11.23;3.67;;;;;;;16.98;75.90;100770.66;5073186;28;20056;-48
2021/07/05 06:54:24;;;;;;;7.85;3.60;;;;;;;16.92;75.47;100771.88;5073135;28;20517;-50
2021/07/05 06:56:52;;;;;;;7.22;2.67;;;;;;;16.98;76.01;100765.16;5073575;28;20487;-50
2021/07/05 06:59:19;;;;;;;6.20;2.88;;;;;;;16.98;75.81;100770.66;5065105;28;20049;-51
2021/07/05 07:01:47;;;;;;;8.48;3.58;;;;;;;17.08;75.38;100771.50;5073091;28;20047;-52
2021/07/05 07:04:17;;;;;;;7.20;3.50;;;;;;;17.04;75.41;100766.63;5073028;28;20072;-51
2021/07/05 07:06:48;;;;;;;11.55;3.70;;;;;;;17.10;75.40;100774.75;5072656;28;20131;-50
2021/07/05 07:09:17;;;;;;;9.35;3.67;;;;;;;17.07;75.65;100775.41;5072828;28;20047;-50
2021/07/05 07:11:44;;;;;;;6.78;2.55;;;;;;;17.14;75.75;100776.56;5055108;28;20055;-51
2021/07/05 07:14:12;;;;;;;10.15;4.03;;;;;;;17.13;75.19;100780.47;5072908;28;20036;-51
2021/07/05 07:16:51;;;;;;;10.98;3.97;;;;;;;17.16;74.89;100781.78;5072978;28;20071;-53
2021/07/05 07:19:19;;;;;;;15.80;4.68;;;;;;;17.10;74.55;100783.84;5072028;28;20067;-50
2021/07/05 07:21:50;;;;;;;8.90;4.05;;;;;;;17.15;75.02;100780.97;5072847;28;20052;-54
2021/07/05 07:24:18;;;;;;;13.85;4.32;;;;;;;17.15;75.11;100782.88;5072540;28;20048;-50
2021/07/05 07:26:47;;;;;;;16.42;5.00;;;;;;;17.19;74.78;100783.91;5072824;28;20066;-48
2021/07/05 07:29:15;;;;;;;10.10;3.80;;;;;;;17.24;74.86;100797.53;5072730;28;20043;-48
2021/07/05 07:31:43;;;;;;;13.02;4.32;;;;;;;17.30;75.09;100796.28;5054674;28;20132;-48
2021/07/05 07:34:10;;;;;;;15.82;6.55;;;;;;;17.39;75.02;100793.56;5072161;28;20044;-47
2021/07/05 07:36:39;;;;;;;12.88;5.15;;;;;;;17.33;74.92;100795.66;5072502;28;20041;-47
2021/07/05 07:39:14;;;;;;;11.73;5.00;;;;;;;17.34;75.20;100790.94;5072690;28;20040;-53
2021/07/05 07:41:41;;;;;;;10.90;4.60;;;;;;;17.42;75.17;100804.78;5072239;28;20491;-50
2021/07/05 07:44:09;;;;;;;15.10;6.50;;;;;;;17.45;74.78;100804.16;5072348;28;20060;-49
2021/07/05 07:46:36;;;;;;;16.58;4.85;;;;;;;17.40;75.31;100809.78;5072487;28;20047;-49
2021/07/05 07:49:04;;;;;;;10.27;4.20;;;;;;;17.43;74.93;100811.09;5071835;28;20048;-52
2021/07/05 07:51:32;;;;;;;9.55;4.45;;;;;;;17.42;74.95;100810.28;5072194;28;20110;-51
2021/07/05 07:53:59;;;;;;;10.48;4.45;;;;;;;17.39;75.32;100818.38;5072327;28;20048;-50
2021/07/05 07:56:29;;;;;;;10.18;3.90;;;;;;;17.35;75.65;100815.44;5072492;28;20051;-47
2021/07/05 07:58:59;;;;;;;9.68;4.00;;;;;;;17.43;75.66;100816.63;5072079;28;20495;-53
2021/07/05 08:01:27;;;;;;;12.38;4.50;;;;;;;17.53;75.03;100818.28;5072169;28;20072;-53
2021/07/05 08:03:56;;;;;;;12.27;3.88;;;;;;;17.52;74.99;100813.94;5071677;28;20075;-53
2021/07/05 08:06:24;;;;;;;8.27;3.80;;;;;;;17.59;74.29;100809.59;5072114;28;20052;-54
2021/07/05 08:08:53;;;;;;;7.25;3.13;;;;;;;17.42;74.91;100809.50;5072218;28;20063;-51
2021/07/05 08:11:21;;;;;;;11.25;3.90;;;;;;;17.39;75.23;100810.94;5072320;28;20055;-54
2021/07/05 08:13:49;;;;;;;9.20;3.63;;;;;;;17.27;75.65;100810.69;5072106;28;20498;-50
2021/07/05 08:16:16;;;;;;;10.40;3.67;;;;;;;17.24;75.61;100814.06;5071316;28;20072;-49
2021/07/05 08:18:52;;;;;;;12.77;4.10;;;;;;;17.31;75.47;100811.66;5006887;28;10000580;-50
2021/07/05 08:21:20;;;;;;;10.75;4.30;;;;;;;17.39;75.56;100812.84;5069473;28;20253;-53
2021/07/05 08:23:48;;;;;;;12.25;4.03;;;;;;;17.45;75.03;100808.84;5069726;28;20057;-53
2021/07/05 08:26:18;;;;;;;12.55;3.72;;;;;;;17.40;75.45;100818.06;5069691;28;20036;-52
2021/07/05 08:28:46;;;;;;;11.77;4.00;;;;;;;17.49;75.03;100809.06;5069859;28;20047;-51
2021/07/05 08:31:14;;;;;;;8.50;3.55;;;;;;;17.46;75.40;100813.22;5069275;28;20053;-53
2021/07/05 08:33:42;;;;;;;8.63;3.88;;;;;;;17.44;75.60;100819.06;5051624;28;20036;-49
2021/07/05 08:36:09;;;;;;;8.27;3.97;;;;;;;17.45;75.53;100815.16;5069469;28;20041;-51
2021/07/05 08:38:37;;;;;;;9.30;4.05;;;;;;;17.42;75.38;100826.81;5069890;28;21988;-50
2021/07/05 08:41:04;;;;;;;12.88;4.70;;;;;;;17.41;76.09;100818.88;5069715;28;20040;-52
2021/07/05 08:43:32;;;;;;;7.05;3.00;;;;;;;17.45;75.65;100819.88;5069124;28;20053;-50
2021/07/05 08:46:04;;;;;;;15.40;4.82;;;;;;;17.53;75.37;100823.81;5069055;28;20479;-52
2021/07/05 08:48:35;;;;;;;5.68;3.22;;;;;;;17.53;75.17;100821.06;5069284;28;20041;-56
2021/07/05 08:51:04;;;;;;;10.82;3.63;;;;;;;17.65;74.55;100824.03;5069518;28;20506;-52
2021/07/05 08:53:32;;;;;;;9.55;3.90;;;;;;;17.85;73.69;100818.03;5069628;28;20048;-51
2021/07/05 08:56:00;;;;;;;11.93;4.72;;;;;;;17.73;73.57;100817.78;5058632;28;20049;-50
2021/07/05 08:58:27;;;;;;;10.00;3.10;;;;;;;17.65;74.21;100818.53;5070998;28;20052;-51
2021/07/05 09:00:55;;;;;;;7.97;3.65;;;;;;;17.66;74.24;100820.16;5068924;28;20096;-52
2021/07/05 09:03:24;;;;;;;7.70;3.55;;;;;;;17.61;74.70;100817.56;5069145;28;20120;-56
2021/07/05 09:06:08;;;;;;;11.20;4.10;;;;;;;17.55;74.69;100827.06;5070746;28;20487;-52
2021/07/05 09:08:38;;;;;;;8.32;3.53;;;;;;;17.53;74.94;100815.53;5053310;28;20036;-54
2021/07/05 09:11:17;;;;;;;11.00;3.42;;;;;;;17.68;74.40;100813.22;5071381;28;20060;-51
2021/07/05 09:13:52;;;;;;;11.05;3.63;;;;;;;17.82;74.13;100813.16;5071268;28;20037;-51
2021/07/05 09:16:31;;;;;;;8.82;3.30;;;;;;;17.91;73.56;100815.13;5070624;28;20037;-47
2021/07/05 09:18:59;;;;;;;8.85;3.45;;;;;;;17.90;73.67;100816.28;5071167;28;20415;-51
2021/07/05 09:21:31;;;;;;;9.68;3.30;;;;;;;17.88;73.72;100816.56;5071178;28;20049;-52
2021/07/05 09:24:01;;;;;;;7.30;3.20;;;;;;;17.88;73.83;100816.56;5071247;28;20045;-53
2021/07/05 09:26:53;;;;;;;9.73;3.40;;;;;;;17.85;73.51;100818.03;5070824;28;20040;-52
2021/07/05 09:29:23;;;;;;;8.93;3.47;;;;;;;17.79;73.69;100810.97;5053629;28;20056;-52
2021/07/05 09:32:06;;;;;;;11.93;4.05;;;;;;;17.83;73.63;100813.97;5073505;28;20048;-53
2021/07/05 09:34:43;;;;;;;8.27;3.05;;;;;;;17.91;73.57;100820.63;5074525;28;20070;-56
2021/07/05 09:37:20;;;;;;;13.68;4.00;;;;;;;18.01;73.07;100817.59;5074583;28;20139;-55
2021/07/05 09:40:03;;;;;;;8.45;3.15;;;;;;;18.09;72.94;100823.16;4705540;28;10000018;-52
2021/07/05 09:42:36;;;;;;;9.13;3.00;;;;;;;18.08;72.78;100823.47;5059151;28;20579;-52
2021/07/05 09:45:10;;;;;;;10.60;3.00;;;;;;;18.07;72.67;100824.59;5071793;28;20170;-53
2021/07/05 09:47:38;;;;;;;8.35;3.20;;;;;;;18.12;72.29;100827.22;5072694;28;20040;-53
2021/07/05 09:50:16;;;;;;;9.55;3.92;;;;;;;18.06;72.41;100829.31;5054885;28;20098;-52
2021/07/05 09:52:45;;;;;;;9.48;5.07;;;;;;;17.97;73.08;100824.91;5068860;28;20040;-52
2021/07/05 09:55:15;;;;;;;13.85;5.07;;;;;;;17.95;71.86;100827.16;5053230;28;20040;-52
2021/07/05 09:57:50;;;;;;;38.88;22.85;;;;;;;18.03;73.57;100815.34;5072359;28;20494;-50
2021/07/05 10:00:22;;;;;;;24.77;14.73;;;;;;;18.19;72.36;100824.81;5057496;28;20047;-52
2021/07/05 10:02:57;;;;;;;32.13;21.88;;;;;;;18.18;73.38;100825.13;5071925;28;20040;-55
2021/07/05 10:05:24;;;;;;;12.90;5.38;;;;;;;18.15;72.40;100826.56;5058321;28;20044;-51
2021/07/05 10:08:19;;;;;;;22.25;13.85;;;;;;;18.28;74.15;100822.91;5054191;28;20036;-52
2021/07/05 10:10:47;;;;;;;23.58;13.18;;;;;;;18.36;73.56;100820.47;5071302;28;20048;-53
2021/07/05 10:13:19;;;;;;;17.77;7.82;;;;;;;18.21;72.91;100819.78;5071689;28;20036;-51
2021/07/05 10:15:49;;;;;;;20.88;9.50;;;;;;;18.12;74.54;100820.91;5053502;28;20380;-50
2021/07/05 10:18:17;;;;;;;18.98;10.70;;;;;;;18.23;74.21;100820.28;5071397;28;20098;-53
2021/07/05 10:20:46;;;;;;;18.15;10.02;;;;;;;18.24;74.67;100821.91;5054382;28;20159;-48
2021/07/05 10:23:17;;;;;;;15.43;6.65;;;;;;;18.18;74.31;100827.88;5071970;28;20127;-52
2021/07/05 10:25:48;;;;;;;16.00;8.10;;;;;;;18.22;74.44;100824.16;5066877;28;20048;-53
2021/07/05 10:28:19;;;;;;;14.77;6.20;;;;;;;18.31;74.02;100826.97;5071150;28;20045;-51
2021/07/05 10:30:50;;;;;;;20.80;8.50;;;;;;;18.30;74.41;100828.91;5071150;28;20044;-50
2021/07/05 10:33:18;;;;;;;15.90;7.18;;;;;;;18.36;73.40;100826.81;5066101;28;20041;-51
2021/07/05 10:35:53;;;;;;;12.70;6.30;;;;;;;18.31;73.60;100833.28;5071027;28;20086;-53
2021/07/05 10:38:22;;;;;;;11.23;5.35;;;;;;;18.23;74.13;100836.84;5053648;28;20055;-52
2021/07/05 10:40:55;;;;;;;12.15;5.65;;;;;;;18.42;73.42;100836.53;5070769;28;20498;-51
2021/07/05 10:43:53;;;;;;;9.65;4.53;;;;;;;18.26;73.82;100836.19;5069577;28;20072;-52
2021/07/05 10:46:45;;;;;;;9.98;4.32;;;;;;;18.28;74.04;100835.88;5068597;28;20039;-50
2021/07/05 10:49:28;;;;;;;8.85;3.97;;;;;;;18.18;74.07;100831.44;5071344;28;20127;-51
2021/07/05 10:52:12;;;;;;;8.52;4.15;;;;;;;18.23;73.59;100828.56;5070521;28;20053;-49
2021/07/05 10:54:45;;;;;;;9.25;4.15;;;;;;;18.19;73.83;100826.75;5070175;28;20403;-52
2021/07/05 10:57:16;;;;;;;7.70;3.30;;;;;;;18.05;74.37;100835.13;5070630;28;20060;-51
2021/07/05 10:59:46;;;;;;;7.38;3.47;;;;;;;18.03;74.50;100837.38;5070978;28;20056;-52
2021/07/05 11:02:33;;;;;;;9.68;3.72;;;;;;;18.09;74.17;100836.94;5070892;28;20153;-56
2021/07/05 11:05:31;;;;;;;;;;;;;;;18.10;74.39;100837.75;5070596;28;20049;-52
2021/07/05 11:08:36;;;;;;;9.23;3.60;;;;;;;18.09;74.31;100833.38;5064210;28;19924;-53
2021/07/05 11:11:32;;;;;;;6.00;3.10;;;;;;;18.07;73.91;100824.59;5070421;28;20554;-53
2021/07/05 11:14:20;;;;;;;8.10;3.70;;;;;;;18.13;73.88;100828.03;5064454;28;20410;-55
2021/07/05 11:17:08;;;;;;;8.30;3.65;;;;;;;18.20;73.56;100820.09;5066481;28;20610;-54
2021/07/05 11:19:49;;;;;;;10.25;3.20;;;;;;;18.23;73.26;100814.78;5070425;28;20441;-53
2021/07/05 11:22:21;;;;;;;8.00;3.00;;;;;;;18.29;72.17;100813.47;5070493;28;20059;-53
2021/07/05 11:24:54;;;;;;;5.00;2.38;;;;;;;18.25;71.67;100815.25;5069585;28;20052;-51
2021/07/05 11:27:32;;;;;;;6.15;2.50;;;;;;;18.18;71.56;100806.63;5070270;28;20060;-54
2021/07/05 11:30:12;;;;;;;6.68;2.60;;;;;;;18.13;71.53;100817.78;5070137;28;20048;-51
2021/07/05 11:32:48;;;;;;;4.47;2.60;;;;;;;18.17;71.83;100812.47;5070653;28;20044;-55
2021/07/05 11:35:41;;;;;;;4.38;2.67;;;;;;;18.24;72.11;100813.63;5069790;28;20039;-53
2021/07/05 11:38:14;;;;;;;4.97;2.30;;;;;;;18.23;70.29;100811.19;5070217;28;20059;-53